sensor_id;sensor_type;location;lat;lon;timestamp;temperature;humidity
43043;DHT22;28667;50.758;6.096;2023-04-26T00:00:25;4.30;99.90
43043;DHT22;28667;50.758;6.096;2023-04-26T00:02:50;4.30;99.90
43043;DHT22;28667;50.758;6.096;2023-04-26T00:05:17;4.20;99.90
43043;DHT22;28667;50.758;6.096;2023-04-26T00:07:44;4.20;99.90
43043;DHT22;28667;50.758;6.096;2023-04-26T00:10:10;4.20;99.90
43043;DHT22;28667;50.758;6.096;2023-04-26T00:12:36;4.10;99.90
43043;DHT22;28667;50.758;6.096;2023-04-26T00:15:05;4.10;99.90
43043;DHT22;28667;50.758;6.096;2023-04-26T00:17:32;4.10;99.90
43043;DHT22;28667;50.758;6.096;2023-04-26T00:19:58;4.00;99.90
43043;DHT22;28667;50.758;6.096;2023-04-26T00:22:24;3.90;99.90
43043;DHT22;28667;50.758;6.096;2023-04-26T00:24:50;3.90;99.90
43043;DHT22;28667;50.758;6.096;2023-04-26T00:27:16;3.80;99.90
43043;DHT22;28667;50.758;6.096;2023-04-26T00:29:42;3.80;99.90
43043;DHT22;28667;50.758;6.096;2023-04-26T00:32:08;3.70;99.90
43043;DHT22;28667;50.758;6.096;2023-04-26T00:34:34;3.70;99.90
43043;DHT22;28667;50.758;6.096;2023-04-26T00:37:00;3.70;99.90
43043;DHT22;28667;50.758;6.096;2023-04-26T00:39:26;3.60;99.90
43043;DHT22;28667;50.758;6.096;2023-04-26T00:41:52;3.60;99.90
43043;DHT22;28667;50.758;6.096;2023-04-26T00:44:18;3.60;99.90
43043;DHT22;28667;50.758;6.096;2023-04-26T00:46:44;3.50;99.90
43043;DHT22;28667;50.758;6.096;2023-04-26T00:49:14;3.40;99.90
43043;DHT22;28667;50.758;6.096;2023-04-26T00:51:42;3.40;99.90
43043;DHT22;28667;50.758;6.096;2023-04-26T00:54:08;3.30;99.90
43043;DHT22;28667;50.758;6.096;2023-04-26T00:56:36;3.30;99.90
43043;DHT22;28667;50.758;6.096;2023-04-26T00:59:03;3.30;99.90
43043;DHT22;28667;50.758;6.096;2023-04-26T01:01:29;3.20;99.90
43043;DHT22;28667;50.758;6.096;2023-04-26T01:03:54;3.20;99.90
43043;DHT22;28667;50.758;6.096;2023-04-26T01:06:21;3.10;99.90
43043;DHT22;28667;50.758;6.096;2023-04-26T01:08:50;3.10;99.90
43043;DHT22;28667;50.758;6.096;2023-04-26T01:11:21;3.10;99.90
43043;DHT22;28667;50.758;6.096;2023-04-26T01:13:47;3.00;99.90
43043;DHT22;28667;50.758;6.096;2023-04-26T01:16:16;3.00;99.90
43043;DHT22;28667;50.758;6.096;2023-04-26T01:18:43;3.00;99.90
43043;DHT22;28667;50.758;6.096;2023-04-26T01:21:19;2.90;99.90
43043;DHT22;28667;50.758;6.096;2023-04-26T01:23:47;2.90;99.90
43043;DHT22;28667;50.758;6.096;2023-04-26T01:26:12;2.80;99.90
43043;DHT22;28667;50.758;6.096;2023-04-26T01:28:38;2.80;99.90
43043;DHT22;28667;50.758;6.096;2023-04-26T01:31:04;2.80;99.90
43043;DHT22;28667;50.758;6.096;2023-04-26T01:33:30;2.70;99.90
43043;DHT22;28667;50.758;6.096;2023-04-26T01:35:56;2.70;99.90
43043;DHT22;28667;50.758;6.096;2023-04-26T01:38:21;2.70;99.90
43043;DHT22;28667;50.758;6.096;2023-04-26T01:40:47;2.60;99.90
43043;DHT22;28667;50.758;6.096;2023-04-26T01:43:13;2.60;99.90
43043;DHT22;28667;50.758;6.096;2023-04-26T01:45:40;2.50;99.90
43043;DHT22;28667;50.758;6.096;2023-04-26T01:48:24;2.60;99.90
43043;DHT22;28667;50.758;6.096;2023-04-26T01:50:50;2.50;99.90
43043;DHT22;28667;50.758;6.096;2023-04-26T01:53:16;2.50;99.90
43043;DHT22;28667;50.758;6.096;2023-04-26T01:55:41;2.50;99.90
43043;DHT22;28667;50.758;6.096;2023-04-26T01:58:08;2.50;99.90
43043;DHT22;28667;50.758;6.096;2023-04-26T02:00:34;2.40;99.90
43043;DHT22;28667;50.758;6.096;2023-04-26T02:02:59;2.40;99.90
43043;DHT22;28667;50.758;6.096;2023-04-26T02:05:25;2.30;99.90
43043;DHT22;28667;50.758;6.096;2023-04-26T02:07:51;2.30;99.90
43043;DHT22;28667;50.758;6.096;2023-04-26T02:10:16;2.30;99.90
43043;DHT22;28667;50.758;6.096;2023-04-26T02:12:43;2.20;99.90
43043;DHT22;28667;50.758;6.096;2023-04-26T02:15:09;2.20;99.90
43043;DHT22;28667;50.758;6.096;2023-04-26T02:17:35;2.20;99.90
43043;DHT22;28667;50.758;6.096;2023-04-26T02:20:03;2.20;99.90
43043;DHT22;28667;50.758;6.096;2023-04-26T02:22:28;2.10;99.90
43043;DHT22;28667;50.758;6.096;2023-04-26T02:24:55;2.10;99.90
43043;DHT22;28667;50.758;6.096;2023-04-26T02:27:26;2.10;99.90
43043;DHT22;28667;50.758;6.096;2023-04-26T02:29:53;2.00;99.90
43043;DHT22;28667;50.758;6.096;2023-04-26T02:32:19;2.00;99.90
43043;DHT22;28667;50.758;6.096;2023-04-26T02:34:45;2.00;99.90
43043;DHT22;28667;50.758;6.096;2023-04-26T02:37:11;1.90;99.90
43043;DHT22;28667;50.758;6.096;2023-04-26T02:39:37;1.90;99.90
43043;DHT22;28667;50.758;6.096;2023-04-26T02:42:03;1.90;99.90
43043;DHT22;28667;50.758;6.096;2023-04-26T02:44:29;1.90;99.90
43043;DHT22;28667;50.758;6.096;2023-04-26T02:46:57;1.90;99.90
43043;DHT22;28667;50.758;6.096;2023-04-26T02:49:23;1.90;99.90
43043;DHT22;28667;50.758;6.096;2023-04-26T02:51:49;1.80;99.90
43043;DHT22;28667;50.758;6.096;2023-04-26T02:54:16;1.80;99.90
43043;DHT22;28667;50.758;6.096;2023-04-26T02:56:41;1.80;99.90
43043;DHT22;28667;50.758;6.096;2023-04-26T02:59:07;1.80;99.90
43043;DHT22;28667;50.758;6.096;2023-04-26T03:01:33;1.70;99.90
43043;DHT22;28667;50.758;6.096;2023-04-26T03:03:59;1.70;99.90
43043;DHT22;28667;50.758;6.096;2023-04-26T03:06:24;1.60;99.90
43043;DHT22;28667;50.758;6.096;2023-04-26T03:08:50;1.60;99.90
43043;DHT22;28667;50.758;6.096;2023-04-26T03:11:16;1.60;99.90
43043;DHT22;28667;50.758;6.096;2023-04-26T03:13:42;1.60;99.90
43043;DHT22;28667;50.758;6.096;2023-04-26T03:16:08;1.50;99.90
43043;DHT22;28667;50.758;6.096;2023-04-26T03:18:34;1.50;99.90
43043;DHT22;28667;50.758;6.096;2023-04-26T03:21:00;1.50;99.90
43043;DHT22;28667;50.758;6.096;2023-04-26T03:23:26;1.50;99.90
43043;DHT22;28667;50.758;6.096;2023-04-26T03:25:53;1.40;99.90
43043;DHT22;28667;50.758;6.096;2023-04-26T03:28:19;1.50;99.90
43043;DHT22;28667;50.758;6.096;2023-04-26T03:30:45;1.40;99.90
43043;DHT22;28667;50.758;6.096;2023-04-26T03:33:14;1.40;99.90
43043;DHT22;28667;50.758;6.096;2023-04-26T03:35:42;1.30;99.90
43043;DHT22;28667;50.758;6.096;2023-04-26T03:38:08;1.30;99.90
43043;DHT22;28667;50.758;6.096;2023-04-26T03:40:33;1.30;99.90
43043;DHT22;28667;50.758;6.096;2023-04-26T03:43:01;1.20;99.90
43043;DHT22;28667;50.758;6.096;2023-04-26T03:45:27;1.20;99.90
43043;DHT22;28667;50.758;6.096;2023-04-26T03:47:53;1.20;99.90
43043;DHT22;28667;50.758;6.096;2023-04-26T03:50:19;1.20;99.90
43043;DHT22;28667;50.758;6.096;2023-04-26T03:52:45;1.20;99.90
43043;DHT22;28667;50.758;6.096;2023-04-26T03:55:11;1.20;99.90
43043;DHT22;28667;50.758;6.096;2023-04-26T03:57:37;1.10;99.90
43043;DHT22;28667;50.758;6.096;2023-04-26T04:00:04;1.10;99.90
43043;DHT22;28667;50.758;6.096;2023-04-26T04:02:41;1.10;99.90
43043;DHT22;28667;50.758;6.096;2023-04-26T04:05:08;1.10;99.90
43043;DHT22;28667;50.758;6.096;2023-04-26T04:07:35;1.10;99.90
43043;DHT22;28667;50.758;6.096;2023-04-26T04:10:01;1.10;99.90
43043;DHT22;28667;50.758;6.096;2023-04-26T04:12:27;1.10;99.90
43043;DHT22;28667;50.758;6.096;2023-04-26T04:14:53;1.10;99.90
43043;DHT22;28667;50.758;6.096;2023-04-26T04:17:19;1.00;99.90
43043;DHT22;28667;50.758;6.096;2023-04-26T04:19:45;1.10;99.90
43043;DHT22;28667;50.758;6.096;2023-04-26T04:22:10;1.10;99.90
43043;DHT22;28667;50.758;6.096;2023-04-26T04:24:37;1.10;99.90
43043;DHT22;28667;50.758;6.096;2023-04-26T04:27:03;1.10;99.90
43043;DHT22;28667;50.758;6.096;2023-04-26T04:29:30;1.00;99.90
43043;DHT22;28667;50.758;6.096;2023-04-26T04:31:57;1.00;99.90
43043;DHT22;28667;50.758;6.096;2023-04-26T04:34:23;1.00;99.90
43043;DHT22;28667;50.758;6.096;2023-04-26T04:36:49;1.00;99.90
43043;DHT22;28667;50.758;6.096;2023-04-26T04:39:18;1.00;99.90
43043;DHT22;28667;50.758;6.096;2023-04-26T04:41:44;1.00;99.90
43043;DHT22;28667;50.758;6.096;2023-04-26T04:44:14;1.00;99.90
43043;DHT22;28667;50.758;6.096;2023-04-26T04:46:44;1.10;99.90
43043;DHT22;28667;50.758;6.096;2023-04-26T04:49:11;1.00;99.90
43043;DHT22;28667;50.758;6.096;2023-04-26T04:51:40;1.10;99.90
43043;DHT22;28667;50.758;6.096;2023-04-26T04:54:14;1.10;99.90
43043;DHT22;28667;50.758;6.096;2023-04-26T04:56:41;1.10;99.90
43043;DHT22;28667;50.758;6.096;2023-04-26T04:59:09;1.20;99.90
43043;DHT22;28667;50.758;6.096;2023-04-26T05:01:35;1.20;99.90
43043;DHT22;28667;50.758;6.096;2023-04-26T05:04:05;1.20;99.90
43043;DHT22;28667;50.758;6.096;2023-04-26T05:06:32;1.20;99.90
43043;DHT22;28667;50.758;6.096;2023-04-26T05:08:58;1.30;99.90
43043;DHT22;28667;50.758;6.096;2023-04-26T05:11:28;1.30;99.90
43043;DHT22;28667;50.758;6.096;2023-04-26T05:13:54;1.30;99.90
43043;DHT22;28667;50.758;6.096;2023-04-26T05:16:20;1.40;99.90
43043;DHT22;28667;50.758;6.096;2023-04-26T05:18:46;1.40;99.90
43043;DHT22;28667;50.758;6.096;2023-04-26T05:21:12;1.40;99.90
43043;DHT22;28667;50.758;6.096;2023-04-26T05:23:38;1.40;99.90
43043;DHT22;28667;50.758;6.096;2023-04-26T05:26:05;1.40;99.90
43043;DHT22;28667;50.758;6.096;2023-04-26T05:29:03;1.50;99.90
43043;DHT22;28667;50.758;6.096;2023-04-26T05:31:49;1.50;99.90
43043;DHT22;28667;50.758;6.096;2023-04-26T05:34:33;1.50;99.90
43043;DHT22;28667;50.758;6.096;2023-04-26T05:36:59;1.50;99.90
43043;DHT22;28667;50.758;6.096;2023-04-26T05:39:26;1.60;99.90
43043;DHT22;28667;50.758;6.096;2023-04-26T05:41:52;1.60;99.90
43043;DHT22;28667;50.758;6.096;2023-04-26T05:44:17;1.70;99.90
43043;DHT22;28667;50.758;6.096;2023-04-26T05:46:45;1.70;99.90
43043;DHT22;28667;50.758;6.096;2023-04-26T05:49:11;1.70;99.90
43043;DHT22;28667;50.758;6.096;2023-04-26T05:51:38;1.80;99.90
43043;DHT22;28667;50.758;6.096;2023-04-26T05:54:04;1.80;99.90
43043;DHT22;28667;50.758;6.096;2023-04-26T05:56:31;1.90;99.90
43043;DHT22;28667;50.758;6.096;2023-04-26T05:58:57;1.90;99.90
43043;DHT22;28667;50.758;6.096;2023-04-26T06:01:23;1.90;99.90
43043;DHT22;28667;50.758;6.096;2023-04-26T06:03:49;2.00;99.90
43043;DHT22;28667;50.758;6.096;2023-04-26T06:06:18;2.00;99.90
43043;DHT22;28667;50.758;6.096;2023-04-26T06:08:45;2.10;99.90
43043;DHT22;28667;50.758;6.096;2023-04-26T06:11:11;2.20;99.90
43043;DHT22;28667;50.758;6.096;2023-04-26T06:13:37;2.30;99.90
43043;DHT22;28667;50.758;6.096;2023-04-26T06:16:04;2.30;99.90
43043;DHT22;28667;50.758;6.096;2023-04-26T06:18:30;2.40;99.90
43043;DHT22;28667;50.758;6.096;2023-04-26T06:20:56;2.50;99.90
43043;DHT22;28667;50.758;6.096;2023-04-26T06:23:22;2.60;99.90
43043;DHT22;28667;50.758;6.096;2023-04-26T06:25:48;2.70;99.90
43043;DHT22;28667;50.758;6.096;2023-04-26T06:28:14;2.80;99.90
43043;DHT22;28667;50.758;6.096;2023-04-26T06:30:41;2.90;99.90
43043;DHT22;28667;50.758;6.096;2023-04-26T06:33:07;3.00;99.90
43043;DHT22;28667;50.758;6.096;2023-04-26T06:35:40;3.10;99.90
43043;DHT22;28667;50.758;6.096;2023-04-26T06:38:07;3.10;99.90
43043;DHT22;28667;50.758;6.096;2023-04-26T06:40:34;3.30;99.90
43043;DHT22;28667;50.758;6.096;2023-04-26T06:43:01;3.40;99.90
43043;DHT22;28667;50.758;6.096;2023-04-26T06:45:38;3.50;99.90
43043;DHT22;28667;50.758;6.096;2023-04-26T06:48:04;3.70;99.90
43043;DHT22;28667;50.758;6.096;2023-04-26T06:50:32;3.80;99.90
43043;DHT22;28667;50.758;6.096;2023-04-26T06:52:57;3.90;99.90
43043;DHT22;28667;50.758;6.096;2023-04-26T06:55:23;4.00;99.90
43043;DHT22;28667;50.758;6.096;2023-04-26T06:57:49;4.20;99.90
43043;DHT22;28667;50.758;6.096;2023-04-26T07:00:15;4.30;99.90
43043;DHT22;28667;50.758;6.096;2023-04-26T07:02:42;4.40;99.90
43043;DHT22;28667;50.758;6.096;2023-04-26T07:05:08;4.50;99.90
43043;DHT22;28667;50.758;6.096;2023-04-26T07:07:34;4.60;99.90
43043;DHT22;28667;50.758;6.096;2023-04-26T07:09:59;4.70;99.90
43043;DHT22;28667;50.758;6.096;2023-04-26T07:12:25;4.80;99.90
43043;DHT22;28667;50.758;6.096;2023-04-26T07:14:51;5.00;99.90
43043;DHT22;28667;50.758;6.096;2023-04-26T07:17:17;5.10;99.90
43043;DHT22;28667;50.758;6.096;2023-04-26T07:19:42;5.20;99.90
43043;DHT22;28667;50.758;6.096;2023-04-26T07:22:08;5.30;99.90
43043;DHT22;28667;50.758;6.096;2023-04-26T07:24:34;5.40;99.90
43043;DHT22;28667;50.758;6.096;2023-04-26T07:27:00;5.50;99.90
43043;DHT22;28667;50.758;6.096;2023-04-26T07:29:26;5.60;99.90
43043;DHT22;28667;50.758;6.096;2023-04-26T07:31:52;5.70;99.90
43043;DHT22;28667;50.758;6.096;2023-04-26T07:34:18;5.80;99.90
43043;DHT22;28667;50.758;6.096;2023-04-26T07:36:44;5.90;99.90
43043;DHT22;28667;50.758;6.096;2023-04-26T07:39:10;6.00;99.90
43043;DHT22;28667;50.758;6.096;2023-04-26T07:41:36;6.10;99.90
43043;DHT22;28667;50.758;6.096;2023-04-26T07:44:02;6.10;99.90
43043;DHT22;28667;50.758;6.096;2023-04-26T07:46:27;6.20;99.90
43043;DHT22;28667;50.758;6.096;2023-04-26T07:48:53;6.30;99.90
43043;DHT22;28667;50.758;6.096;2023-04-26T07:51:19;6.40;99.90
43043;DHT22;28667;50.758;6.096;2023-04-26T07:53:51;6.50;99.90
43043;DHT22;28667;50.758;6.096;2023-04-26T07:56:43;6.60;99.90
43043;DHT22;28667;50.758;6.096;2023-04-26T08:03:34;6.80;99.90
43043;DHT22;28667;50.758;6.096;2023-04-26T08:06:07;6.80;99.90
43043;DHT22;28667;50.758;6.096;2023-04-26T08:09:29;6.80;99.90
43043;DHT22;28667;50.758;6.096;2023-04-26T08:12:30;6.90;99.90
43043;DHT22;28667;50.758;6.096;2023-04-26T08:15:32;7.00;99.90
43043;DHT22;28667;50.758;6.096;2023-04-26T08:18:32;7.00;99.90
43043;DHT22;28667;50.758;6.096;2023-04-26T08:21:28;7.20;99.90
43043;DHT22;28667;50.758;6.096;2023-04-26T08:24:05;7.30;99.90
43043;DHT22;28667;50.758;6.096;2023-04-26T08:27:03;7.30;99.90
43043;DHT22;28667;50.758;6.096;2023-04-26T08:29:48;7.40;99.90
43043;DHT22;28667;50.758;6.096;2023-04-26T08:32:14;7.50;99.90
43043;DHT22;28667;50.758;6.096;2023-04-26T08:34:46;7.60;99.90
43043;DHT22;28667;50.758;6.096;2023-04-26T08:37:27;7.70;99.90
43043;DHT22;28667;50.758;6.096;2023-04-26T08:40:15;7.70;99.90
43043;DHT22;28667;50.758;6.096;2023-04-26T08:43:08;7.70;99.90
43043;DHT22;28667;50.758;6.096;2023-04-26T08:51:51;7.60;99.90
43043;DHT22;28667;50.758;6.096;2023-04-26T08:54:42;7.60;99.70
43043;DHT22;28667;50.758;6.096;2023-04-26T09:00:12;7.70;99.90
43043;DHT22;28667;50.758;6.096;2023-04-26T09:02:53;7.70;99.90
43043;DHT22;28667;50.758;6.096;2023-04-26T09:05:23;7.70;99.90
43043;DHT22;28667;50.758;6.096;2023-04-26T09:08:05;7.60;99.90
43043;DHT22;28667;50.758;6.096;2023-04-26T09:10:37;7.60;99.90
43043;DHT22;28667;50.758;6.096;2023-04-26T09:13:06;7.70;99.90
43043;DHT22;28667;50.758;6.096;2023-04-26T09:15:45;7.70;99.90
43043;DHT22;28667;50.758;6.096;2023-04-26T09:18:17;7.70;99.90
43043;DHT22;28667;50.758;6.096;2023-04-26T09:21:08;7.80;99.90
43043;DHT22;28667;50.758;6.096;2023-04-26T09:23:34;7.90;99.90
43043;DHT22;28667;50.758;6.096;2023-04-26T09:26:21;8.00;99.50
43043;DHT22;28667;50.758;6.096;2023-04-26T09:29:24;8.00;99.70
43043;DHT22;28667;50.758;6.096;2023-04-26T09:31:58;8.20;99.80
43043;DHT22;28667;50.758;6.096;2023-04-26T09:34:26;8.40;98.90
43043;DHT22;28667;50.758;6.096;2023-04-26T09:36:56;8.60;99.00
43043;DHT22;28667;50.758;6.096;2023-04-26T09:39:51;8.70;99.90
43043;DHT22;28667;50.758;6.096;2023-04-26T09:42:27;8.80;99.10
43043;DHT22;28667;50.758;6.096;2023-04-26T09:45:05;8.90;98.70
43043;DHT22;28667;50.758;6.096;2023-04-26T09:47:37;8.90;98.30
43043;DHT22;28667;50.758;6.096;2023-04-26T09:50:12;8.90;98.60
43043;DHT22;28667;50.758;6.096;2023-04-26T09:52:50;9.00;98.00
43043;DHT22;28667;50.758;6.096;2023-04-26T09:55:31;9.00;97.60
43043;DHT22;28667;50.758;6.096;2023-04-26T09:58:09;9.00;97.50
43043;DHT22;28667;50.758;6.096;2023-04-26T10:00:49;8.90;96.10
43043;DHT22;28667;50.758;6.096;2023-04-26T10:03:29;8.80;96.30
43043;DHT22;28667;50.758;6.096;2023-04-26T10:06:08;8.80;96.50
43043;DHT22;28667;50.758;6.096;2023-04-26T10:08:35;8.70;96.50
43043;DHT22;28667;50.758;6.096;2023-04-26T10:11:03;8.80;96.30
43043;DHT22;28667;50.758;6.096;2023-04-26T10:13:37;8.90;96.90
43043;DHT22;28667;50.758;6.096;2023-04-26T10:16:03;9.10;96.30
43043;DHT22;28667;50.758;6.096;2023-04-26T10:18:30;9.20;95.60
43043;DHT22;28667;50.758;6.096;2023-04-26T10:21:01;9.40;95.10
43043;DHT22;28667;50.758;6.096;2023-04-26T10:23:29;9.40;95.20
43043;DHT22;28667;50.758;6.096;2023-04-26T10:25:56;9.60;95.00
43043;DHT22;28667;50.758;6.096;2023-04-26T10:31:08;9.40;94.60
43043;DHT22;28667;50.758;6.096;2023-04-26T10:33:35;9.40;94.20
43043;DHT22;28667;50.758;6.096;2023-04-26T10:36:11;9.30;94.60
43043;DHT22;28667;50.758;6.096;2023-04-26T10:39:16;9.30;94.90
43043;DHT22;28667;50.758;6.096;2023-04-26T10:41:34;9.40;95.20
43043;DHT22;28667;50.758;6.096;2023-04-26T10:44:36;9.50;94.90
43043;DHT22;28667;50.758;6.096;2023-04-26T10:47:04;9.50;94.50
43043;DHT22;28667;50.758;6.096;2023-04-26T10:49:45;9.60;95.00
43043;DHT22;28667;50.758;6.096;2023-04-26T10:52:15;9.70;94.00
43043;DHT22;28667;50.758;6.096;2023-04-26T10:54:46;9.80;93.70
43043;DHT22;28667;50.758;6.096;2023-04-26T10:57:12;9.80;93.70
43043;DHT22;28667;50.758;6.096;2023-04-26T10:59:38;9.80;93.30
43043;DHT22;28667;50.758;6.096;2023-04-26T11:02:08;9.80;92.60
43043;DHT22;28667;50.758;6.096;2023-04-26T11:04:54;9.70;93.00
43043;DHT22;28667;50.758;6.096;2023-04-26T11:07:40;9.80;92.60
43043;DHT22;28667;50.758;6.096;2023-04-26T11:10:09;9.90;93.20
43043;DHT22;28667;50.758;6.096;2023-04-26T11:13:01;10.00;92.20
43043;DHT22;28667;50.758;6.096;2023-04-26T11:15:30;10.10;92.00
43043;DHT22;28667;50.758;6.096;2023-04-26T11:17:57;10.10;91.70
43043;DHT22;28667;50.758;6.096;2023-04-26T11:20:27;10.10;92.00
43043;DHT22;28667;50.758;6.096;2023-04-26T11:22:53;10.20;92.70
43043;DHT22;28667;50.758;6.096;2023-04-26T11:25:20;10.30;93.00
43043;DHT22;28667;50.758;6.096;2023-04-26T11:27:45;10.50;91.60
43043;DHT22;28667;50.758;6.096;2023-04-26T11:30:11;10.60;91.50
43043;DHT22;28667;50.758;6.096;2023-04-26T11:32:37;10.60;93.50
43043;DHT22;28667;50.758;6.096;2023-04-26T11:35:03;10.60;91.60
43043;DHT22;28667;50.758;6.096;2023-04-26T11:37:30;10.60;92.40
43043;DHT22;28667;50.758;6.096;2023-04-26T11:39:56;10.70;93.30
43043;DHT22;28667;50.758;6.096;2023-04-26T11:42:25;10.80;93.90
43043;DHT22;28667;50.758;6.096;2023-04-26T11:44:52;10.90;90.90
43043;DHT22;28667;50.758;6.096;2023-04-26T11:47:21;10.90;90.50
43043;DHT22;28667;50.758;6.096;2023-04-26T11:49:55;10.90;90.90
43043;DHT22;28667;50.758;6.096;2023-04-26T11:52:21;11.00;91.50
43043;DHT22;28667;50.758;6.096;2023-04-26T11:54:47;11.10;91.10
43043;DHT22;28667;50.758;6.096;2023-04-26T11:57:14;11.20;90.40
43043;DHT22;28667;50.758;6.096;2023-04-26T11:59:40;11.20;90.10
43043;DHT22;28667;50.758;6.096;2023-04-26T12:02:06;11.30;90.10
43043;DHT22;28667;50.758;6.096;2023-04-26T12:04:32;11.20;89.80
43043;DHT22;28667;50.758;6.096;2023-04-26T12:06:58;11.30;90.30
43043;DHT22;28667;50.758;6.096;2023-04-26T12:09:29;11.30;89.50
43043;DHT22;28667;50.758;6.096;2023-04-26T12:12:03;11.30;89.80
43043;DHT22;28667;50.758;6.096;2023-04-26T12:16:58;11.20;89.30
43043;DHT22;28667;50.758;6.096;2023-04-26T12:19:24;11.40;90.00
43043;DHT22;28667;50.758;6.096;2023-04-26T12:21:51;11.40;90.60
43043;DHT22;28667;50.758;6.096;2023-04-26T12:24:28;11.40;90.20
43043;DHT22;28667;50.758;6.096;2023-04-26T12:26:55;11.40;88.90
43043;DHT22;28667;50.758;6.096;2023-04-26T12:29:20;11.30;89.00
43043;DHT22;28667;50.758;6.096;2023-04-26T12:31:46;11.20;90.40
43043;DHT22;28667;50.758;6.096;2023-04-26T12:34:12;11.20;90.40
43043;DHT22;28667;50.758;6.096;2023-04-26T12:36:40;11.30;90.60
43043;DHT22;28667;50.758;6.096;2023-04-26T12:39:10;11.20;90.50
43043;DHT22;28667;50.758;6.096;2023-04-26T12:41:36;11.20;89.80
43043;DHT22;28667;50.758;6.096;2023-04-26T12:44:41;11.10;89.90
43043;DHT22;28667;50.758;6.096;2023-04-26T12:47:27;10.90;90.10
43043;DHT22;28667;50.758;6.096;2023-04-26T12:49:59;10.80;89.60
43043;DHT22;28667;50.758;6.096;2023-04-26T12:52:43;10.70;90.70
43043;DHT22;28667;50.758;6.096;2023-04-26T12:55:38;10.60;90.40
43043;DHT22;28667;50.758;6.096;2023-04-26T12:58:45;10.50;90.90
43043;DHT22;28667;50.758;6.096;2023-04-26T13:01:26;10.40;91.30
43043;DHT22;28667;50.758;6.096;2023-04-26T13:04:12;10.40;91.10
43043;DHT22;28667;50.758;6.096;2023-04-26T13:06:59;10.40;90.70
43043;DHT22;28667;50.758;6.096;2023-04-26T13:10:00;10.30;91.20
43043;DHT22;28667;50.758;6.096;2023-04-26T13:13:29;10.40;91.70
43043;DHT22;28667;50.758;6.096;2023-04-26T13:16:28;10.40;90.90
43043;DHT22;28667;50.758;6.096;2023-04-26T13:19:04;10.60;91.30
43043;DHT22;28667;50.758;6.096;2023-04-26T13:21:36;10.70;91.70
43043;DHT22;28667;50.758;6.096;2023-04-26T13:24:03;10.80;91.20
43043;DHT22;28667;50.758;6.096;2023-04-26T13:26:35;10.80;90.60
43043;DHT22;28667;50.758;6.096;2023-04-26T13:29:06;10.80;90.70
43043;DHT22;28667;50.758;6.096;2023-04-26T13:32:06;10.70;90.40
43043;DHT22;28667;50.758;6.096;2023-04-26T13:41:45;10.70;90.50
43043;DHT22;28667;50.758;6.096;2023-04-26T13:48:33;10.70;91.10
43043;DHT22;28667;50.758;6.096;2023-04-26T13:51:59;10.70;90.60
43043;DHT22;28667;50.758;6.096;2023-04-26T13:55:13;10.70;91.30
43043;DHT22;28667;50.758;6.096;2023-04-26T13:58:07;10.90;92.00
43043;DHT22;28667;50.758;6.096;2023-04-26T14:04:13;11.20;89.40
43043;DHT22;28667;50.758;6.096;2023-04-26T14:06:44;11.40;90.00
43043;DHT22;28667;50.758;6.096;2023-04-26T14:09:17;11.50;89.80
43043;DHT22;28667;50.758;6.096;2023-04-26T14:11:49;11.70;90.90
43043;DHT22;28667;50.758;6.096;2023-04-26T14:14:31;12.00;90.30
43043;DHT22;28667;50.758;6.096;2023-04-26T14:17:11;12.20;87.50
43043;DHT22;28667;50.758;6.096;2023-04-26T14:19:57;12.30;86.50
43043;DHT22;28667;50.758;6.096;2023-04-26T14:22:24;12.30;86.00
43043;DHT22;28667;50.758;6.096;2023-04-26T14:24:57;12.30;85.90
43043;DHT22;28667;50.758;6.096;2023-04-26T14:27:34;12.40;86.30
43043;DHT22;28667;50.758;6.096;2023-04-26T14:30:04;12.30;85.20
43043;DHT22;28667;50.758;6.096;2023-04-26T14:32:30;12.30;85.60
43043;DHT22;28667;50.758;6.096;2023-04-26T14:34:56;12.40;86.00
43043;DHT22;28667;50.758;6.096;2023-04-26T14:37:22;12.40;87.80
43043;DHT22;28667;50.758;6.096;2023-04-26T14:39:51;12.50;87.10
43043;DHT22;28667;50.758;6.096;2023-04-26T14:42:16;12.40;87.40
43043;DHT22;28667;50.758;6.096;2023-04-26T14:44:42;12.30;86.60
43043;DHT22;28667;50.758;6.096;2023-04-26T14:47:10;12.10;87.60
43043;DHT22;28667;50.758;6.096;2023-04-26T14:49:36;12.10;88.90
43043;DHT22;28667;50.758;6.096;2023-04-26T14:52:02;12.10;88.50
43043;DHT22;28667;50.758;6.096;2023-04-26T14:54:28;12.10;89.10
43043;DHT22;28667;50.758;6.096;2023-04-26T14:56:54;12.20;89.50
43043;DHT22;28667;50.758;6.096;2023-04-26T14:59:20;12.20;89.50
43043;DHT22;28667;50.758;6.096;2023-04-26T15:01:46;12.40;88.30
43043;DHT22;28667;50.758;6.096;2023-04-26T15:04:11;12.40;89.50
43043;DHT22;28667;50.758;6.096;2023-04-26T15:06:37;12.40;90.20
43043;DHT22;28667;50.758;6.096;2023-04-26T15:09:03;12.40;88.50
43043;DHT22;28667;50.758;6.096;2023-04-26T15:11:33;12.30;87.30
43043;DHT22;28667;50.758;6.096;2023-04-26T15:13:58;12.20;87.60
43043;DHT22;28667;50.758;6.096;2023-04-26T15:16:24;12.30;88.20
43043;DHT22;28667;50.758;6.096;2023-04-26T15:18:50;12.40;86.90
43043;DHT22;28667;50.758;6.096;2023-04-26T15:21:17;12.50;87.50
43043;DHT22;28667;50.758;6.096;2023-04-26T15:23:43;12.60;86.90
43043;DHT22;28667;50.758;6.096;2023-04-26T15:26:09;12.60;85.80
43043;DHT22;28667;50.758;6.096;2023-04-26T15:28:34;12.50;86.00
43043;DHT22;28667;50.758;6.096;2023-04-26T15:31:06;12.40;86.50
43043;DHT22;28667;50.758;6.096;2023-04-26T15:33:32;12.20;85.90
43043;DHT22;28667;50.758;6.096;2023-04-26T15:35:58;12.00;87.00
43043;DHT22;28667;50.758;6.096;2023-04-26T15:38:23;12.00;88.20
43043;DHT22;28667;50.758;6.096;2023-04-26T15:40:49;11.90;88.60
43043;DHT22;28667;50.758;6.096;2023-04-26T15:43:15;11.90;87.70
43043;DHT22;28667;50.758;6.096;2023-04-26T15:45:41;11.90;88.30
43043;DHT22;28667;50.758;6.096;2023-04-26T15:48:09;11.80;87.50
43043;DHT22;28667;50.758;6.096;2023-04-26T15:50:36;11.70;87.60
43043;DHT22;28667;50.758;6.096;2023-04-26T15:53:02;11.60;87.90
43043;DHT22;28667;50.758;6.096;2023-04-26T15:55:30;11.40;87.90
43043;DHT22;28667;50.758;6.096;2023-04-26T15:57:56;11.30;88.00
43043;DHT22;28667;50.758;6.096;2023-04-26T16:00:22;11.20;89.40
43043;DHT22;28667;50.758;6.096;2023-04-26T16:02:47;11.10;90.00
43043;DHT22;28667;50.758;6.096;2023-04-26T16:05:13;11.10;89.70
43043;DHT22;28667;50.758;6.096;2023-04-26T16:07:39;11.10;89.90
43043;DHT22;28667;50.758;6.096;2023-04-26T16:10:06;11.10;89.30
43043;DHT22;28667;50.758;6.096;2023-04-26T16:12:36;11.00;89.30
43043;DHT22;28667;50.758;6.096;2023-04-26T16:15:08;11.00;89.50
43043;DHT22;28667;50.758;6.096;2023-04-26T16:17:34;10.90;89.50
43043;DHT22;28667;50.758;6.096;2023-04-26T16:20:01;10.90;89.20
43043;DHT22;28667;50.758;6.096;2023-04-26T16:22:27;10.80;90.20
43043;DHT22;28667;50.758;6.096;2023-04-26T16:24:52;10.80;90.20
43043;DHT22;28667;50.758;6.096;2023-04-26T16:27:18;10.80;90.30
43043;DHT22;28667;50.758;6.096;2023-04-26T16:29:46;10.80;89.80
43043;DHT22;28667;50.758;6.096;2023-04-26T16:32:14;10.70;90.40
43043;DHT22;28667;50.758;6.096;2023-04-26T16:34:40;10.60;90.30
43043;DHT22;28667;50.758;6.096;2023-04-26T16:37:06;10.60;90.90